Ana Sayfa
METAR-TAF:

METAR-TAF

Havaalanları :

Midland, Michigan, Amerika Birleşik Devletleri

Enlem: 43-39-46N, Boylam: 084-15-41W, yükseklik: 194 m

Güncel hava durumu gözlemi

Rapor saat 10:15 UTC de 24 dakika önce yapıldı.
Rüzgar kuzeybatıdan 3 kt
Sıcaklık 17°C
Nem 72%
Basınç 1016 hPa
Görüş mesafesi: 16.1 km
4100 ft yükseklikte parçalı bulutlu
4800 ft yükseklikte parçalı çok bulutlu
8000 ft yükseklikte parçalı çok bulutlu

METAR: KIKW 221015Z AUTO 32003KT 10SM SCT041 BKN048 BKN080 17/12 A2999 RMK AO2 T01650120

Saat: 06:39 (10:39 UTC)


TAF: eksik

4.000'den fazla havaalanı için hava durumu gözlemleri ve tahminleri (METAR ve TAF raporları).

Kullanılabilir istasyonlar harita üzerinde sarı ve kırmızı noktalarla gösterilir.

İstasyonun adını görmek için fareyi noktanın üzerinde gezdirin.

Sonrasında hava gözlem ve tahminlerini görmek için tıklayın.

Haritayı değiştirmek için: yaklaştırmak için siyah artı işaretli yeşil düğmeye ve uzaklaştırmak için de eksi işaretli düğmeye hızla tıklayın; bitişik haritalar için yeşil okları kullanın.


METAR-TAF: